KEYWKSPG

Guest
Details From KEYW - Key West Intl
To KSPG - Albert Whitted
Flight Number -
Tags decoded
Created
Modified
Stats Distance 198 nm / 367 km
Max Altitude 0 ft / 0 m
Waypoints 2
Social Downloads 0
Likes 0
Share VATSIM

Download

Looking for another format? Having issues loading an existing format? Contact us
Advertisement - Login to hide

Notes

Requested: KEYW FORRA.RIGOR.BAGGS.BOOGI.VPGPE.BIGOO KSPG Unmatched points: FORRA.RIGOR.BAGGS.BOOGI.VPGPE.BIGOO

Route

KEYW KSPG

ID Type Via Altitude Latitude Longitude Leg Dist Tot Dist Heading (true) Name
O KEYW APT - 0 ft / 0 m 24.55612˚ -81.75955˚ - 0 nm - Key West Intl
O KSPG APT - 0 ft / 0 m 27.76505˚ -82.62674˚ 198 nm 198 nm 347° / 346° Albert Whitted

Altitude Profile

Advertisement - Login to hide

Weather


0- 5 10 15 20 25 30 35+ Temperature / ° C

Clouds and Precipitation
Forecast for 2018-05-28 00:00 UTC. Updated 28 minutes ago

Ground ~20,000 ft ~40,000 ft Winds

KEYW

Details ICAO KEYW (EYW)
Name Key West Intl
Region United States
Timezone America/New_York (UTC-4.0)
Stats Elevation 2 ft / 1 m (AMSL)
Location 24.556124° -81.759546°
Runways 1
Magnetic Variation 5.594° W

METAR

KEYW 272311Z 15013KT 3/4SM TSRA BR FEW012 BKN031 OVC048 24/24 A2980 RMK AO2 PK WND 16026/2259 LTG DSNT ALQDS TSB02 P0011 T02440239

Decode

TAF

KEYW 272105Z 2721/2818 16015G21KT P6SM VCSH FEW018 SCT025 BKN090 TEMPO 2722/2802 18016G28KT 2SM +TSRA BKN020CB OVC035 FM280800 18014G23KT P6SM -SHRA VCTS SCT020CB TEMPO 2808/2812 18020G30KT 2SM +TSRA BKN020CB OVC035

Decode

Departure Runways

ID Width Length Bearing (true) Bearing (mag) Surface Threshold Offset Overrun Length
09 100 ft / 30 m 4,794 ft / 1,461 m 89.38° 94.97° Asphalt 151 ft / 46 m 0 ft / 0 m
27 100 ft / 30 m 4,794 ft / 1,461 m 269.39° 274.98° Asphalt 151 ft / 46 m 0 ft / 0 m

KSPG

Details ICAO KSPG (SPG)
Name Albert Whitted
Region United States
Timezone America/New_York (UTC-4.0)
Stats Elevation 7 ft / 2 m (AMSL)
Location 27.765051° -82.626745°
Runways 2
Magnetic Variation 5.511° W

METAR

KSPG 272253Z 20016KT 10SM FEW050 28/23 A2968 RMK AO2 SLP051 T02780233

Decode

TAF

Not found

Destination Runways

ID Width Length Bearing (true) Bearing (mag) Surface Threshold Offset Overrun Length
06 75 ft / 23 m 3,676 ft / 1,120 m 61.97° 67.48° Asphalt 558 ft / 170 m 0 ft / 0 m
18 150 ft / 46 m 2,875 ft / 876 m 179.64° 185.15° Asphalt 0 ft / 0 m 0 ft / 0 m
24 75 ft / 23 m 3,676 ft / 1,120 m 241.98° 247.49° Asphalt 263 ft / 80 m 0 ft / 0 m
36 150 ft / 46 m 2,875 ft / 876 m 359.64° 5.15° Asphalt 0 ft / 0 m 0 ft / 0 m

Popular Alternatives